AtLS 9701 — ATLS — position and weather

sailwx.info

Track history (hours):
 
Tides and Currents Weather Stations Pressure Air Temp Water Temp Dewpoint Dewpoint Depression Visibility Wind Speed Wind Dir Waves Ship Positions

AtLS 9701

Last reported at 2018-Jun-07 01:11 UTC. Time now 2018-Jun-20 20:38 UTC.
Position N 34°09' W 119°13'.
Warning: this ship's position is 13 days out of date.

Length 75 m; draft 2.3 m.

Type: Military. MMSI: 269970276.

Date/timePositionNaut miles runAvg speedWind from/ knotsBaromVisibWave heightAir tempDewpointWater temp
2018-Jun-07 01:11N 34°09' W 119°13'0 0.0
2018-Jun-07 00:47N 34°09' W 119°13'0 0.0
2018-Jun-07 00:25N 34°09' W 119°13'0 0.0
2018-Jun-06 23:57N 34°09' W 119°13'0 0.0
2018-Jun-06 23:27N 34°09' W 119°13'0 0.0
2018-Jun-06 22:55N 34°09' W 119°13'0 0.0
2018-Jun-06 22:27N 34°09' W 119°13'0 0.0
2018-Jun-06 21:55N 34°09' W 119°13'0 0.0
2018-Jun-06 21:28N 34°09' W 119°13'0 0.0
2018-Jun-06 21:00N 34°09' W 119°13'0 0.0
2018-Jun-06 20:25N 34°09' W 119°13'0 0.0
2018-Jun-06 20:00N 34°09' W 119°13'0 0.0
2018-Jun-06 19:30N 34°09' W 119°13'0 0.0
2018-Jun-06 19:00N 34°09' W 119°13'0 0.0
2018-Jun-06 18:28N 34°09' W 119°13'0 0.0
2018-Jun-06 18:00N 34°09' W 119°13'0 0.0
2018-Jun-06 17:30N 34°09' W 119°13'0 0.1
2018-Jun-06 17:00N 34°09' W 119°13'0 0.0
2018-Jun-06 16:30N 34°09' W 119°13'0 0.0
2018-Jun-06 16:00N 34°09' W 119°13'0 0.0
2018-Jun-06 15:29N 34°09' W 119°13'0 0.0
2018-Jun-06 15:00N 34°09' W 119°13'0 0.0
2018-Jun-06 14:30N 34°09' W 119°13'1 2.2
2018-Jun-06 14:00N 34°08' W 119°13'2 4.9
2018-Jun-06 13:30N 34°07' W 119°11'3 5.7
2018-Jun-06 13:00N 34°05' W 119°08'3 5.9
2018-Jun-06 12:30N 34°04' W 119°05'3 5.9
2018-Jun-06 12:00N 34°02' W 119°02'3 5.9
2018-Jun-06 11:30N 34°01' W 118°59'3 6.0
2018-Jun-06 11:00N 33°59' W 118°56'3 6.1
2018-Jun-06 10:30N 33°58' W 118°53'3 6.1
2018-Jun-06 10:00N 33°57' W 118°49'3 3.7
2018-Jun-06 09:19N 33°55' W 118°48'3 6.7
2018-Jun-06 08:53N 33°53' W 118°51'3 6.7
2018-Jun-06 08:30N 33°52' W 118°54'3 6.5
2018-Jun-06 08:00N 33°51' W 118°57'3 6.4
2018-Jun-06 07:29N 33°50' W 119°01'2 3.2
2018-Jun-06 07:00N 33°49' W 119°00'3 6.5
2018-Jun-06 06:30N 33°47' W 118°57'3 6.7
2018-Jun-06 06:00N 33°46' W 118°53'3 6.9
2018-Jun-06 05:30N 33°44' W 118°50'3 6.9
2018-Jun-06 05:00N 33°42' W 118°46'3 6.6
2018-Jun-06 04:30N 33°40' W 118°43'3 6.7
2018-Jun-06 03:59N 33°38' W 118°40'3 6.7
2018-Jun-06 03:29N 33°36' W 118°36'3 6.5
2018-Jun-06 02:58N 33°34' W 118°33'4 4.4
2018-Jun-06 02:00N 33°31' W 118°29'2 4.1
2018-Jun-06 01:30N 33°30' W 118°27'33 2.6
2018-Jun-05 12:50N 32°57' W 118°30'0 0.0
2018-Jun-05 10:22N 32°57' W 118°30'0 0.0
2018-Jun-05 09:47N 32°57' W 118°30'0 0.0
2018-Jun-05 03:13N 32°57' W 118°30'0 0.0
2018-Jun-05 02:56N 32°57' W 118°30'0 0.0
2018-Jun-05 02:28N 32°57' W 118°30'5 5.3
2018-Jun-05 01:36N 33°01' W 118°33'1 9.1
2018-Jun-05 01:28N 33°00' W 118°31'6 8.8
2018-Jun-05 00:45N 32°57' W 118°25'25 2.1
2018-Jun-04 12:51N 33°19' W 118°11'2 6.1
2018-Jun-04 12:28N 33°17' W 118°10'26 1.6
2018-Jun-03 20:22N 33°00' W 118°33'0 0.0
2018-Jun-03 19:51N 33°00' W 118°33'0 0.0
2018-Jun-03 19:22N 33°00' W 118°33'0 0.0
2018-Jun-03 18:51N 33°00' W 118°33'0 0.0
2018-Jun-03 16:40N 33°00' W 118°33'0 0.0
2018-Jun-03 13:27N 33°00' W 118°33'0 0.1
2018-Jun-03 12:57N 33°00' W 118°33'0 0.0
2018-Jun-03 11:53N 33°00' W 118°33'0 0.2
2018-Jun-03 11:29N 33°01' W 118°33'0 0.0
2018-Jun-03 10:57N 33°01' W 118°33'0 0.0
2018-Jun-03 10:30N 33°01' W 118°33'0 0.0
2018-Jun-03 10:00N 33°01' W 118°33'0 0.0
2018-Jun-03 08:49N 33°01' W 118°33'0 0.0
2018-Jun-03 08:30N 33°01' W 118°33'0 0.0
2018-Jun-03 07:22N 33°01' W 118°33'0 0.0
2018-Jun-03 06:12N 33°01' W 118°33'0 0.0
2018-Jun-03 05:54N 33°01' W 118°33'0 0.1
2018-Jun-03 05:26N 33°00' W 118°33'0 0.1
2018-Jun-03 05:00N 33°00' W 118°33'0 0.1
2018-Jun-03 04:30N 33°00' W 118°33'0 0.1
2018-Jun-03 04:00N 33°00' W 118°33'0 0.1
2018-Jun-03 03:30N 33°01' W 118°33'0 0.1
2018-Jun-03 02:48N 33°00' W 118°33'0 0.0
2018-Jun-03 02:28N 33°00' W 118°33'0 0.1
2018-Jun-03 02:00N 33°00' W 118°33'0 0.0
2018-Jun-03 01:24N 33°00' W 118°33'0 0.0
2018-Jun-03 01:00N 33°00' W 118°33'0 0.0
2018-Jun-03 00:29N 33°00' W 118°33'0 0.0
2018-Jun-03 00:00N 33°00' W 118°33'0 0.0
2018-Jun-02 23:30N 33°00' W 118°33'0 0.0
2018-Jun-02 23:00N 33°00' W 118°33'0 0.0
2018-Jun-02 21:47N 33°01' W 118°33'0 0.0
2018-Jun-02 21:11N 33°00' W 118°33'0 0.1
2018-Jun-02 20:42N 33°01' W 118°33'0 0.2
2018-Jun-02 20:26N 33°00' W 118°33'0 0.1
2018-Jun-02 19:59N 33°01' W 118°33'0 0.1
2018-Jun-02 19:18N 33°00' W 118°33'0 0.2
2018-Jun-02 18:59N 33°00' W 118°33'0 0.1
2018-Jun-02 17:57N 33°00' W 118°33'0 0.1
2018-Jun-02 17:27N 33°01' W 118°33'0 0.1
2018-Jun-02 16:52N 33°00' W 118°33'0 0.0
2018-Jun-02 16:30N 33°00' W 118°33'0 0.0
2018-Jun-02 15:58N 33°00' W 118°33'0 0.1
2018-Jun-02 15:30N 33°01' W 118°33'0 0.0
2018-Jun-02 13:45N 33°01' W 118°33'0 0.0
2018-Jun-02 13:30N 33°01' W 118°33'0 0.1
2018-Jun-02 12:51N 33°00' W 118°33'0 0.0
2018-Jun-02 12:28N 33°00' W 118°33'0 0.0
2018-Jun-02 11:46N 33°00' W 118°33'0 0.0
2018-Jun-02 09:55N 33°01' W 118°33'0 0.0
2018-Jun-02 09:30N 33°01' W 118°33'0 0.0
2018-Jun-02 08:49N 33°01' W 118°33'0 0.0
2018-Jun-02 08:30N 33°01' W 118°33'0 0.1
2018-Jun-02 07:59N 33°00' W 118°33'0 0.1
2018-Jun-02 07:28N 33°00' W 118°33'0 0.1
2018-Jun-02 06:59N 33°00' W 118°33'0 0.0
2018-Jun-02 06:30N 33°00' W 118°33'0 0.1
2018-Jun-02 06:00N 33°00' W 118°33'0 0.1
2018-Jun-02 05:24N 33°00' W 118°33'3 2.2
2018-Jun-02 04:09N 33°01' W 118°30'40 1.8
2018-Jun-01 06:11N 33°40' W 118°39'11 6.4
2018-Jun-01 04:27N 33°47' W 118°50'3 6.6
2018-Jun-01 03:57N 33°49' W 118°53'3 6.8
2018-Jun-01 03:28N 33°51' W 118°56'3 6.7
2018-Jun-01 03:00N 33°53' W 118°59'3 6.7
2018-Jun-01 02:30N 33°55' W 119°02'3 6.7
2018-Jun-01 01:59N 33°56' W 119°06'3 5.5
2018-Jun-01 01:30N 33°58' W 119°09'3 5.5
2018-Jun-01 01:00N 33°59' W 119°11'3 5.9
2018-Jun-01 00:30N 34°01' W 119°14'3 6.4
2018-Jun-01 00:00N 34°03' W 119°17'  
Track history (hours):
 
Tides and Currents Weather Stations Pressure Air Temp Water Temp Dewpoint Dewpoint Depression Visibility Wind Speed Wind Dir Waves Ship Positions

AtLS 9701

Last reported at 2018-Jun-07 01:11 UTC. Time now 2018-Jun-20 20:38 UTC.
Position N 34°09' W 119°13'.
Warning: this ship's position is 13 days out of date.

Length 75 m; draft 2.3 m.

Type: Military. MMSI: 269970276.

Date/timePositionNaut miles runAvg speedWind from/ knotsBaromVisibWave heightAir tempDewpointWater temp
2018-Jun-07 01:11N 34°09' W 119°13'0 0.0
2018-Jun-07 00:47N 34°09' W 119°13'0 0.0
2018-Jun-07 00:25N 34°09' W 119°13'0 0.0
2018-Jun-06 23:57N 34°09' W 119°13'0 0.0
2018-Jun-06 23:27N 34°09' W 119°13'0 0.0
2018-Jun-06 22:55N 34°09' W 119°13'0 0.0
2018-Jun-06 22:27N 34°09' W 119°13'0 0.0
2018-Jun-06 21:55N 34°09' W 119°13'0 0.0
2018-Jun-06 21:28N 34°09' W 119°13'0 0.0
2018-Jun-06 21:00N 34°09' W 119°13'0 0.0
2018-Jun-06 20:25N 34°09' W 119°13'0 0.0
2018-Jun-06 20:00N 34°09' W 119°13'0 0.0
2018-Jun-06 19:30N 34°09' W 119°13'0 0.0
2018-Jun-06 19:00N 34°09' W 119°13'0 0.0
2018-Jun-06 18:28N 34°09' W 119°13'0 0.0
2018-Jun-06 18:00N 34°09' W 119°13'0 0.0
2018-Jun-06 17:30N 34°09' W 119°13'0 0.1
2018-Jun-06 17:00N 34°09' W 119°13'0 0.0
2018-Jun-06 16:30N 34°09' W 119°13'0 0.0
2018-Jun-06 16:00N 34°09' W 119°13'0 0.0
2018-Jun-06 15:29N 34°09' W 119°13'0 0.0
2018-Jun-06 15:00N 34°09' W 119°13'0 0.0
2018-Jun-06 14:30N 34°09' W 119°13'1 2.2
2018-Jun-06 14:00N 34°08' W 119°13'2 4.9
2018-Jun-06 13:30N 34°07' W 119°11'3 5.7
2018-Jun-06 13:00N 34°05' W 119°08'3 5.9
2018-Jun-06 12:30N 34°04' W 119°05'3 5.9
2018-Jun-06 12:00N 34°02' W 119°02'3 5.9
2018-Jun-06 11:30N 34°01' W 118°59'3 6.0
2018-Jun-06 11:00N 33°59' W 118°56'3 6.1
2018-Jun-06 10:30N 33°58' W 118°53'3 6.1
2018-Jun-06 10:00N 33°57' W 118°49'3 3.7
2018-Jun-06 09:19N 33°55' W 118°48'3 6.7
2018-Jun-06 08:53N 33°53' W 118°51'3 6.7
2018-Jun-06 08:30N 33°52' W 118°54'3 6.5
2018-Jun-06 08:00N 33°51' W 118°57'3 6.4
2018-Jun-06 07:29N 33°50' W 119°01'2 3.2
2018-Jun-06 07:00N 33°49' W 119°00'3 6.5
2018-Jun-06 06:30N 33°47' W 118°57'3 6.7
2018-Jun-06 06:00N 33°46' W 118°53'3 6.9
2018-Jun-06 05:30N 33°44' W 118°50'3 6.9
2018-Jun-06 05:00N 33°42' W 118°46'3 6.6
2018-Jun-06 04:30N 33°40' W 118°43'3 6.7
2018-Jun-06 03:59N 33°38' W 118°40'3 6.7
2018-Jun-06 03:29N 33°36' W 118°36'3 6.5
2018-Jun-06 02:58N 33°34' W 118°33'4 4.4
2018-Jun-06 02:00N 33°31' W 118°29'2 4.1
2018-Jun-06 01:30N 33°30' W 118°27'33 2.6
2018-Jun-05 12:50N 32°57' W 118°30'0 0.0
2018-Jun-05 10:22N 32°57' W 118°30'0 0.0
2018-Jun-05 09:47N 32°57' W 118°30'0 0.0
2018-Jun-05 03:13N 32°57' W 118°30'0 0.0
2018-Jun-05 02:56N 32°57' W 118°30'0 0.0
2018-Jun-05 02:28N 32°57' W 118°30'5 5.3
2018-Jun-05 01:36N 33°01' W 118°33'1 9.1
2018-Jun-05 01:28N 33°00' W 118°31'6 8.8
2018-Jun-05 00:45N 32°57' W 118°25'25 2.1
2018-Jun-04 12:51N 33°19' W 118°11'2 6.1
2018-Jun-04 12:28N 33°17' W 118°10'26 1.6
2018-Jun-03 20:22N 33°00' W 118°33'0 0.0
2018-Jun-03 19:51N 33°00' W 118°33'0 0.0
2018-Jun-03 19:22N 33°00' W 118°33'0 0.0
2018-Jun-03 18:51N 33°00' W 118°33'0 0.0
2018-Jun-03 16:40N 33°00' W 118°33'0 0.0
2018-Jun-03 13:27N 33°00' W 118°33'0 0.1
2018-Jun-03 12:57N 33°00' W 118°33'0 0.0
2018-Jun-03 11:53N 33°00' W 118°33'0 0.2
2018-Jun-03 11:29N 33°01' W 118°33'0 0.0
2018-Jun-03 10:57N 33°01' W 118°33'0 0.0
2018-Jun-03 10:30N 33°01' W 118°33'0 0.0
2018-Jun-03 10:00N 33°01' W 118°33'0 0.0
2018-Jun-03 08:49N 33°01' W 118°33'0 0.0
2018-Jun-03 08:30N 33°01' W 118°33'0 0.0
2018-Jun-03 07:22N 33°01' W 118°33'0 0.0
2018-Jun-03 06:12N 33°01' W 118°33'0 0.0
2018-Jun-03 05:54N 33°01' W 118°33'0 0.1
2018-Jun-03 05:26N 33°00' W 118°33'0 0.1
2018-Jun-03 05:00N 33°00' W 118°33'0 0.1
2018-Jun-03 04:30N 33°00' W 118°33'0 0.1
2018-Jun-03 04:00N 33°00' W 118°33'0 0.1
2018-Jun-03 03:30N 33°01' W 118°33'0 0.1
2018-Jun-03 02:48N 33°00' W 118°33'0 0.0
2018-Jun-03 02:28N 33°00' W 118°33'0 0.1
2018-Jun-03 02:00N 33°00' W 118°33'0 0.0
2018-Jun-03 01:24N 33°00' W 118°33'0 0.0
2018-Jun-03 01:00N 33°00' W 118°33'0 0.0
2018-Jun-03 00:29N 33°00' W 118°33'0 0.0
2018-Jun-03 00:00N 33°00' W 118°33'0 0.0
2018-Jun-02 23:30N 33°00' W 118°33'0 0.0
2018-Jun-02 23:00N 33°00' W 118°33'0 0.0
2018-Jun-02 21:47N 33°01' W 118°33'0 0.0
2018-Jun-02 21:11N 33°00' W 118°33'0 0.1
2018-Jun-02 20:42N 33°01' W 118°33'0 0.2
2018-Jun-02 20:26N 33°00' W 118°33'0 0.1
2018-Jun-02 19:59N 33°01' W 118°33'0 0.1
2018-Jun-02 19:18N 33°00' W 118°33'0 0.2
2018-Jun-02 18:59N 33°00' W 118°33'0 0.1
2018-Jun-02 17:57N 33°00' W 118°33'0 0.1
2018-Jun-02 17:27N 33°01' W 118°33'0 0.1
2018-Jun-02 16:52N 33°00' W 118°33'0 0.0
2018-Jun-02 16:30N 33°00' W 118°33'0 0.0
2018-Jun-02 15:58N 33°00' W 118°33'0 0.1
2018-Jun-02 15:30N 33°01' W 118°33'0 0.0
2018-Jun-02 13:45N 33°01' W 118°33'0 0.0
2018-Jun-02 13:30N 33°01' W 118°33'0 0.1
2018-Jun-02 12:51N 33°00' W 118°33'0 0.0
2018-Jun-02 12:28N 33°00' W 118°33'0 0.0
2018-Jun-02 11:46N 33°00' W 118°33'0 0.0
2018-Jun-02 09:55N 33°01' W 118°33'0 0.0
2018-Jun-02 09:30N 33°01' W 118°33'0 0.0
2018-Jun-02 08:49N 33°01' W 118°33'0 0.0
2018-Jun-02 08:30N 33°01' W 118°33'0 0.1
2018-Jun-02 07:59N 33°00' W 118°33'0 0.1
2018-Jun-02 07:28N 33°00' W 118°33'0 0.1
2018-Jun-02 06:59N 33°00' W 118°33'0 0.0
2018-Jun-02 06:30N 33°00' W 118°33'0 0.1
2018-Jun-02 06:00N 33°00' W 118°33'0 0.1
2018-Jun-02 05:24N 33°00' W 118°33'3 2.2
2018-Jun-02 04:09N 33°01' W 118°30'40 1.8
2018-Jun-01 06:11N 33°40' W 118°39'11 6.4
2018-Jun-01 04:27N 33°47' W 118°50'3 6.6
2018-Jun-01 03:57N 33°49' W 118°53'3 6.8
2018-Jun-01 03:28N 33°51' W 118°56'3 6.7
2018-Jun-01 03:00N 33°53' W 118°59'3 6.7
2018-Jun-01 02:30N 33°55' W 119°02'3 6.7
2018-Jun-01 01:59N 33°56' W 119°06'3 5.5
2018-Jun-01 01:30N 33°58' W 119°09'3 5.5
2018-Jun-01 01:00N 33°59' W 119°11'3 5.9
2018-Jun-01 00:30N 34°01' W 119°14'3 6.4
2018-Jun-01 00:00N 34°03' W 119°17'  

Dump ship's entire track history